Time;durP1;ratioP1;P1;durP2;ratioP2;P2;SDS_P1;SDS_P2;PMS_P1;PMS_P2;Temp;Humidity;BMP_temperature;BMP_pressure;BME280_temperature;BME280_humidity;BME280_pressure;Samples;Min_cycle;Max_cycle;Signal;HPM_P1;HPM_P2
2022/05/10 00:00:59;;;;;;;11.17;10.17;;;13.00;86.50;;;;;;5012545;28;20494;-51
2022/05/10 00:03:31;;;;;;;12.13;10.93;;;12.90;86.70;;;;;;5020757;28;20866;-51
2022/05/10 00:05:57;;;;;;;10.90;9.80;;;12.80;86.90;;;;;;5020005;28;20499;-53
2022/05/10 00:08:24;;;;;;;12.27;11.17;;;12.80;86.90;;;;;;5017236;28;20490;-52
2022/05/10 00:10:51;;;;;;;10.40;9.40;;;12.80;87.10;;;;;;5018999;28;20489;-52
2022/05/10 00:13:18;;;;;;;10.97;9.97;;;12.70;86.70;;;;;;5017899;28;21182;-53
2022/05/10 00:15:47;;;;;;;11.73;10.43;;;12.50;87.10;;;;;;5019956;28;20524;-52
2022/05/10 00:18:16;;;;;;;12.53;11.40;;;12.50;87.40;;;;;;5006605;28;20962;-52
2022/05/10 00:20:46;;;;;;;20.20;13.00;;;12.40;88.30;;;;;;5013210;28;20903;-52
2022/05/10 00:23:13;;;;;;;10.63;9.67;;;12.20;90.00;;;;;;5021207;28;20898;-52
2022/05/10 00:25:41;;;;;;;12.57;9.73;;;12.10;90.20;;;;;;5018790;28;20817;-52
2022/05/10 00:28:08;;;;;;;14.60;10.97;;;12.10;89.40;;;;;;5019292;28;20478;-52
2022/05/10 00:30:35;;;;;;;12.23;10.77;;;12.10;88.60;;;;;;5018629;28;20491;-53
2022/05/10 00:33:02;;;;;;;11.73;10.53;;;12.20;88.60;;;;;;5019191;28;20494;-52
2022/05/10 00:35:32;;;;;;;12.23;10.73;;;12.20;88.10;;;;;;5018700;28;20881;-53
2022/05/10 00:38:04;;;;;;;13.40;11.67;;;12.20;88.90;;;;;;5017570;28;20825;-52
2022/05/10 00:40:32;;;;;;;12.80;11.40;;;12.10;89.50;;;;;;5017265;28;20538;-53
2022/05/10 00:43:05;;;;;;;12.97;11.17;;;12.00;90.30;;;;;;5019842;28;20491;-53
2022/05/10 00:45:40;;;;;;;17.50;12.03;;;12.00;90.50;;;;;;5019653;28;20512;-53
2022/05/10 00:48:14;;;;;;;12.03;10.93;;;12.00;90.10;;;;;;5017972;28;20571;-53
2022/05/10 00:50:44;;;;;;;12.03;10.83;;;12.00;89.60;;;;;;5016154;28;20749;-53
2022/05/10 00:53:17;;;;;;;11.00;9.90;;;12.10;89.00;;;;;;5019325;28;20473;-53
2022/05/10 00:55:50;;;;;;;10.00;9.00;;;12.10;88.40;;;;;;5015539;28;20904;-53
2022/05/10 00:58:25;;;;;;;10.87;9.77;;;12.00;88.50;;;;;;5007739;28;20484;-53
2022/05/10 01:00:55;;;;;;;11.37;10.17;;;12.00;88.60;;;;;;5007958;28;20498;-52
2022/05/10 01:03:26;;;;;;;13.10;11.07;;;12.00;88.70;;;;;;5019402;28;20493;-53
2022/05/10 01:06:02;;;;;;;10.33;9.33;;;12.00;88.60;;;;;;5015744;28;20497;-52
2022/05/10 01:08:35;;;;;;;11.00;9.93;;;12.00;88.30;;;;;;5018825;28;20570;-52
2022/05/10 01:11:10;;;;;;;13.90;8.93;;;12.00;88.00;;;;;;5017411;28;21025;-52
2022/05/10 01:13:40;;;;;;;11.57;10.43;;;12.10;88.40;;;;;;5017082;28;20955;-52
2022/05/10 01:16:10;;;;;;;11.23;10.23;;;12.10;88.90;;;;;;5018688;28;20544;-52
2022/05/10 01:18:39;;;;;;;12.37;10.60;;;12.10;89.20;;;;;;5018400;28;20891;-52
2022/05/10 01:21:22;;;;;;;12.07;10.87;;;12.20;89.60;;;;;;5017797;28;21001;-52
2022/05/10 01:24:09;;;;;;;12.50;9.83;;;12.20;88.90;;;;;;5005139;28;20486;-52
2022/05/10 01:26:51;;;;;;;10.57;9.57;;;12.20;88.60;;;;;;5017796;28;20498;-53
2022/05/10 01:29:23;;;;;;;11.53;10.43;;;12.20;88.30;;;;;;5006323;28;20848;-53
2022/05/10 01:34:38;;;;;;;12.83;10.20;;;12.10;88.30;;;;;;5017576;28;20476;-52
2022/05/10 01:37:10;;;;;;;11.57;10.23;;;12.00;88.00;;;;;;5018269;28;21019;-53
2022/05/10 01:39:43;;;;;;;10.70;9.60;;;12.00;88.40;;;;;;5016057;28;20492;-52
2022/05/10 01:42:15;;;;;;;10.47;9.40;;;11.90;88.50;;;;;;5017799;28;20476;-52
2022/05/10 01:44:49;;;;;;;10.90;9.57;;;11.90;88.60;;;;;;5017098;28;20479;-52
2022/05/10 01:47:30;;;;;;;9.90;8.90;;;11.80;88.30;;;;;;5019151;28;20902;-53
2022/05/10 01:50:03;;;;;;;20.20;10.90;;;11.80;88.70;;;;;;5016213;28;20933;-53
2022/05/10 01:52:35;;;;;;;13.43;9.97;;;11.70;89.40;;;;;;5013903;28;20505;-53
2022/05/10 01:55:12;;;;;;;13.07;10.87;;;11.70;89.00;;;;;;5016936;28;20518;-53
2022/05/10 01:57:39;;;;;;;11.57;9.93;;;11.80;88.90;;;;;;5018323;28;20480;-52
2022/05/10 02:00:14;;;;;;;11.30;10.20;;;11.80;89.20;;;;;;5013638;28;20490;-52
2022/05/10 02:02:47;;;;;;;11.97;9.80;;;11.80;88.70;;;;;;4995301;28;21024;-52
2022/05/10 02:05:22;;;;;;;10.93;9.83;;;11.80;88.40;;;;;;4998167;28;20993;-52
2022/05/10 02:07:51;;;;;;;12.20;9.50;;;11.80;88.40;;;;;;5009109;28;20487;-52
2022/05/10 02:10:24;;;;;;;13.17;9.60;;;11.60;88.80;;;;;;4994485;28;20482;-52
2022/05/10 02:13:00;;;;;;;11.80;10.60;;;11.50;88.80;;;;;;5003241;28;20504;-55
2022/05/10 02:15:35;;;;;;;12.10;10.17;;;11.40;89.50;;;;;;5016484;28;20867;-53
2022/05/10 02:18:10;;;;;;;13.53;11.03;;;11.30;90.10;;;;;;5017021;28;20494;-53
2022/05/10 02:20:42;;;;;;;12.50;11.30;;;11.20;90.20;;;;;;5011588;28;20490;-53
2022/05/10 02:23:15;;;;;;;13.37;11.03;;;11.10;90.80;;;;;;5000974;28;20495;-53
2022/05/10 02:25:46;;;;;;;16.40;12.80;;;10.90;91.60;;;;;;5013973;28;20480;-53
2022/05/10 02:28:20;;;;;;;16.43;14.80;;;10.80;92.30;;;;;;5017716;28;20572;-53
2022/05/10 02:30:51;;;;;;;12.70;11.40;;;10.70;92.60;;;;;;5012568;28;20487;-53
2022/05/10 02:33:18;;;;;;;12.83;11.30;;;10.90;92.10;;;;;;5018023;28;20501;-53
2022/05/10 02:35:49;;;;;;;15.83;10.80;;;10.90;91.50;;;;;;5014472;28;20490;-53
2022/05/10 02:38:20;;;;;;;12.17;10.73;;;11.00;91.10;;;;;;5011643;28;20973;-53
2022/05/10 02:40:51;;;;;;;11.17;10.07;;;11.10;90.80;;;;;;5014618;28;20475;-53
2022/05/10 02:43:21;;;;;;;13.30;10.50;;;11.10;90.80;;;;;;5017963;28;20976;-53
2022/05/10 02:45:50;;;;;;;10.63;9.60;;;11.10;90.20;;;;;;5011703;28;20476;-53
2022/05/10 02:48:21;;;;;;;19.17;11.00;;;11.10;90.40;;;;;;5018394;28;20506;-53
2022/05/10 02:50:48;;;;;;;10.47;9.47;;;11.10;90.00;;;;;;5015422;28;20471;-53
2022/05/10 02:53:15;;;;;;;11.53;10.33;;;11.10;90.20;;;;;;5016607;28;20974;-53
2022/05/10 02:55:48;;;;;;;13.77;12.33;;;11.00;90.40;;;;;;5016337;28;21047;-53
2022/05/10 02:58:23;;;;;;;13.13;11.83;;;10.80;91.00;;;;;;5016940;28;20517;-53
2022/05/10 03:00:54;;;;;;;13.07;11.53;;;10.70;91.50;;;;;;5003229;28;20483;-53
2022/05/10 03:03:25;;;;;;;15.57;11.97;;;10.60;91.80;;;;;;5010462;28;20538;-54
2022/05/10 03:05:53;;;;;;;11.83;10.63;;;10.60;91.40;;;;;;5005722;28;20483;-53
2022/05/10 03:08:20;;;;;;;11.27;10.17;;;10.70;91.00;;;;;;5010918;28;20904;-53
2022/05/10 03:10:46;;;;;;;12.07;10.90;;;10.80;90.70;;;;;;5010183;28;20508;-53
2022/05/10 03:13:14;;;;;;;12.83;11.53;;;10.80;90.50;;;;;;5017301;28;20773;-53
2022/05/10 03:15:41;;;;;;;11.50;10.40;;;10.80;90.50;;;;;;5014891;28;20606;-53
2022/05/10 03:18:09;;;;;;;15.60;12.83;;;10.90;90.50;;;;;;5016755;28;20725;-53
2022/05/10 03:20:36;;;;;;;12.90;11.70;;;10.80;90.90;;;;;;5011756;28;20492;-54
2022/05/10 03:23:03;;;;;;;15.00;12.10;;;10.70;91.60;;;;;;5004473;28;20500;-53
2022/05/10 03:25:31;;;;;;;11.73;10.63;;;10.70;91.90;;;;;;5009013;28;20530;-53
2022/05/10 03:27:59;;;;;;;13.10;11.70;;;10.80;91.50;;;;;;5014362;28;20492;-53
2022/05/10 03:30:25;;;;;;;11.80;10.03;;;10.80;91.10;;;;;;5014184;28;20838;-53
2022/05/10 03:32:53;;;;;;;12.80;11.47;;;10.90;90.90;;;;;;5016108;28;20488;-53
2022/05/10 03:35:21;;;;;;;13.47;10.93;;;10.90;90.70;;;;;;5016342;28;20503;-53
2022/05/10 03:37:48;;;;;;;10.83;9.73;;;11.00;90.80;;;;;;5016034;28;20479;-53
2022/05/10 03:40:16;;;;;;;11.87;10.67;;;11.00;90.50;;;;;;5013272;28;20519;-53
2022/05/10 03:42:44;;;;;;;14.40;10.27;;;11.00;90.30;;;;;;5014827;28;20484;-53
2022/05/10 03:45:12;;;;;;;12.97;10.87;;;11.00;90.20;;;;;;5014553;28;21282;-53
2022/05/10 03:47:39;;;;;;;11.10;9.97;;;10.90;90.20;;;;;;5014944;28;21082;-54
2022/05/10 03:50:08;;;;;;;12.27;10.97;;;10.80;90.20;;;;;;5014641;28;20491;-54
2022/05/10 03:52:37;;;;;;;11.60;10.20;;;10.80;90.50;;;;;;5015815;28;20519;-54
2022/05/10 03:55:05;;;;;;;16.13;11.70;;;10.80;90.40;;;;;;5014231;28;20488;-54
2022/05/10 03:57:31;;;;;;;12.10;10.90;;;10.80;90.50;;;;;;5015846;28;20488;-54
2022/05/10 03:59:58;;;;;;;10.73;9.57;;;10.80;90.30;;;;;;5017310;28;20499;-55
2022/05/10 04:02:24;;;;;;;12.13;10.87;;;10.90;90.40;;;;;;5020360;28;20890;-54
2022/05/10 04:04:51;;;;;;;15.20;11.03;;;10.90;90.30;;;;;;5009563;28;20580;-54
2022/05/10 04:07:18;;;;;;;12.73;11.40;;;10.80;90.30;;;;;;5020010;28;20484;-54
2022/05/10 04:09:46;;;;;;;14.13;10.90;;;10.70;90.50;;;;;;5019181;28;20495;-54
2022/05/10 04:12:13;;;;;;;12.03;10.67;;;10.70;90.40;;;;;;5011287;28;20498;-54
2022/05/10 04:14:40;;;;;;;13.53;11.07;;;10.70;90.30;;;;;;5019599;28;20483;-54
2022/05/10 04:17:07;;;;;;;11.70;10.50;;;10.60;90.50;;;;;;5017228;28;20486;-54
2022/05/10 04:19:34;;;;;;;11.20;10.03;;;10.50;90.60;;;;;;5010547;28;20483;-54
2022/05/10 04:22:00;;;;;;;19.40;10.67;;;10.50;90.70;;;;;;5018254;28;20694;-54
2022/05/10 04:24:27;;;;;;;11.13;9.83;;;10.50;90.40;;;;;;5016975;28;20490;-54
2022/05/10 04:26:55;;;;;;;12.27;10.40;;;10.50;90.70;;;;;;5016711;28;21068;-54
2022/05/10 04:29:21;;;;;;;11.77;10.70;;;10.50;90.90;;;;;;5018551;28;20488;-54
2022/05/10 04:31:48;;;;;;;11.57;10.40;;;10.40;91.10;;;;;;5018137;28;20487;-54
2022/05/10 04:34:15;;;;;;;12.90;11.53;;;10.40;91.20;;;;;;5021462;28;20489;-54
2022/05/10 04:36:42;;;;;;;12.53;11.10;;;10.50;91.20;;;;;;5016142;28;20498;-54
2022/05/10 04:39:08;;;;;;;18.27;11.97;;;10.50;91.30;;;;;;5018402;28;20514;-54
2022/05/10 04:41:37;;;;;;;14.27;13.00;;;10.60;91.80;;;;;;5019887;28;20475;-54
2022/05/10 04:44:07;;;;;;;15.73;11.77;;;10.70;91.60;;;;;;5019748;28;21047;-54
2022/05/10 04:46:36;;;;;;;13.67;11.90;;;10.70;91.90;;;;;;5018519;28;20549;-54
2022/05/10 04:49:03;;;;;;;12.87;11.50;;;10.70;92.20;;;;;;5017517;28;20591;-54
2022/05/10 04:51:30;;;;;;;13.33;10.60;;;10.80;91.90;;;;;;5020294;28;20476;-55
2022/05/10 04:53:57;;;;;;;14.07;11.33;;;10.90;91.60;;;;;;5014582;28;20479;-55
2022/05/10 04:56:24;;;;;;;11.37;10.27;;;11.00;91.40;;;;;;5018937;28;20492;-54
2022/05/10 04:58:54;;;;;;;12.80;11.57;;;11.00;91.20;;;;;;5017159;28;20479;-54
2022/05/10 05:01:25;;;;;;;13.07;11.77;;;11.00;91.40;;;;;;5019367;28;20479;-54
2022/05/10 05:03:55;;;;;;;12.70;11.07;;;10.90;91.60;;;;;;5018564;28;20570;-54
2022/05/10 05:06:23;;;;;;;13.07;11.77;;;10.90;91.80;;;;;;5017726;28;20898;-55
2022/05/10 05:08:50;;;;;;;14.13;11.27;;;10.80;92.00;;;;;;5015662;28;20501;-54
2022/05/10 05:11:17;;;;;;;15.47;13.07;;;10.80;92.10;;;;;;5018533;28;20499;-54
2022/05/10 05:13:44;;;;;;;13.87;12.47;;;10.80;92.30;;;;;;5018115;28;20537;-54
2022/05/10 05:16:11;;;;;;;14.53;12.20;;;10.80;92.40;;;;;;5018677;28;20886;-54
2022/05/10 05:18:39;;;;;;;13.07;11.77;;;10.90;92.60;;;;;;5016669;28;20768;-54
2022/05/10 05:21:06;;;;;;;12.70;11.40;;;10.90;92.80;;;;;;5016778;28;20498;-54
2022/05/10 05:23:32;;;;;;;15.00;13.40;;;10.90;93.10;;;;;;5018745;28;20513;-54
2022/05/10 05:25:59;;;;;;;16.23;13.23;;;10.90;93.20;;;;;;5018319;28;20559;-54
2022/05/10 05:28:26;;;;;;;17.27;15.47;;;10.90;93.60;;;;;;5016386;28;20489;-54
2022/05/10 05:30:53;;;;;;;18.33;14.70;;;10.90;94.10;;;;;;5016659;28;20486;-54
2022/05/10 05:33:19;;;;;;;15.70;14.00;;;11.00;94.30;;;;;;5017127;28;20478;-54
2022/05/10 05:35:47;;;;;;;16.40;14.43;;;11.20;94.10;;;;;;5011475;28;20483;-54
2022/05/10 05:38:14;;;;;;;16.53;13.63;;;11.40;93.60;;;;;;5020995;28;21023;-54
2022/05/10 05:40:41;;;;;;;15.63;13.97;;;11.60;93.50;;;;;;5016185;28;20494;-54
2022/05/10 05:43:08;;;;;;;23.80;13.10;;;11.70;93.20;;;;;;5019177;28;20510;-54
2022/05/10 05:45:35;;;;;;;16.80;14.07;;;11.90;93.10;;;;;;5018450;28;20495;-54
2022/05/10 05:48:02;;;;;;;14.90;13.17;;;12.00;93.00;;;;;;5014913;28;20484;-54
2022/05/10 05:50:30;;;;;;;16.43;14.77;;;12.10;92.90;;;;;;5014452;28;20491;-54
2022/05/10 05:52:59;;;;;;;15.57;13.97;;;12.20;92.80;;;;;;5012074;28;20491;-54
2022/05/10 05:55:26;;;;;;;15.33;13.47;;;12.20;93.20;;;;;;5011331;28;20478;-54
2022/05/10 05:57:53;;;;;;;16.73;15.10;;;12.30;93.40;;;;;;5018151;28;20484;-54
2022/05/10 06:00:22;;;;;;;19.97;14.93;;;12.50;93.40;;;;;;5017529;28;20484;-55
2022/05/10 06:02:50;;;;;;;18.23;15.33;;;12.70;93.50;;;;;;5007703;28;20527;-54
2022/05/10 06:05:17;;;;;;;17.03;15.23;;;12.90;93.40;;;;;;5017514;28;20499;-55
2022/05/10 06:07:44;;;;;;;17.77;15.87;;;13.10;93.30;;;;;;5014750;28;20499;-55
2022/05/10 06:10:13;;;;;;;17.87;16.00;;;13.20;93.50;;;;;;5015145;28;20492;-55
2022/05/10 06:12:40;;;;;;;19.80;16.47;;;13.40;93.60;;;;;;5015793;28;20524;-54
2022/05/10 06:15:10;;;;;;;20.50;16.03;;;13.50;93.70;;;;;;5015884;28;20485;-55
2022/05/10 06:17:38;;;;;;;22.07;19.70;;;13.70;94.10;;;;;;5016506;28;20489;-54
2022/05/10 06:20:08;;;;;;;19.77;17.40;;;13.90;94.80;;;;;;5016424;28;20548;-54
2022/05/10 06:22:35;;;;;;;21.73;18.77;;;14.10;94.20;;;;;;5017281;28;20493;-54
2022/05/10 06:25:02;;;;;;;22.27;17.70;;;14.30;94.50;;;;;;5017372;28;20927;-55
2022/05/10 06:27:30;;;;;;;21.00;18.80;;;14.50;95.10;;;;;;5017660;28;20511;-55
2022/05/10 06:29:57;;;;;;;21.90;17.57;;;14.80;94.50;;;;;;5015552;28;20482;-55
2022/05/10 06:32:26;;;;;;;22.90;18.20;;;15.00;94.00;;;;;;5017220;28;20540;-54
2022/05/10 06:34:53;;;;;;;20.00;18.00;;;15.20;94.40;;;;;;5016693;28;20523;-54
2022/05/10 06:40:08;;;;;;;19.87;17.60;;;15.60;94.30;;;;;;5005619;28;20535;-55
2022/05/10 06:42:36;;;;;;;20.90;18.00;;;16.00;94.70;;;;;;5017373;28;20475;-55
2022/05/10 06:45:08;;;;;;;19.87;17.83;;;16.20;94.20;;;;;;5005396;28;20484;-56
2022/05/10 06:47:36;;;;;;;19.10;17.00;;;16.50;94.60;;;;;;5017075;28;20709;-56
2022/05/10 06:50:04;;;;;;;22.43;16.87;;;16.90;94.20;;;;;;5002553;28;20481;-56
2022/05/10 06:52:30;;;;;;;18.37;15.77;;;17.20;93.80;;;;;;5014017;28;20492;-57
2022/05/10 06:54:57;;;;;;;18.60;16.70;;;17.60;92.90;;;;;;5015351;28;20575;-57
2022/05/10 06:57:24;;;;;;;18.57;16.73;;;17.90;93.40;;;;;;5014089;28;20839;-57
2022/05/10 06:59:54;;;;;;;17.53;15.70;;;18.20;92.70;;;;;;5014571;28;20489;-57
2022/05/10 07:02:21;;;;;;;16.40;14.87;;;18.30;92.20;;;;;;5016197;28;20517;-56
2022/05/10 07:04:48;;;;;;;17.83;16.03;;;18.50;92.10;;;;;;5016419;28;20535;-56
2022/05/10 07:07:14;;;;;;;17.20;15.47;;;18.70;92.50;;;;;;5014522;28;20477;-55
2022/05/10 07:09:41;;;;;;;17.27;15.47;;;19.00;91.80;;;;;;5013380;28;21013;-55
2022/05/10 07:12:08;;;;;;;17.47;15.77;;;19.20;92.30;;;;;;5015767;28;20866;-56
2022/05/10 07:14:35;;;;;;;17.27;15.57;;;19.30;92.00;;;;;;5016218;28;20496;-55
2022/05/10 07:17:04;;;;;;;16.17;14.63;;;19.40;91.60;;;;;;5014568;28;20484;-55
2022/05/10 07:19:31;;;;;;;20.67;17.10;;;19.50;90.80;;;;;;5010156;28;20501;-55
2022/05/10 07:21:58;;;;;;;17.60;15.87;;;19.70;90.70;;;;;;4999545;28;20625;-55
2022/05/10 07:24:25;;;;;;;17.90;16.13;;;19.90;91.00;;;;;;4999527;28;20935;-55
2022/05/10 07:26:52;;;;;;;17.77;15.87;;;20.00;91.10;;;;;;4993208;28;20484;-55
2022/05/10 07:29:18;;;;;;;16.83;15.13;;;20.20;91.20;;;;;;5001318;28;20488;-55
2022/05/10 07:31:48;;;;;;;16.80;15.27;;;20.40;91.40;;;;;;4999936;28;20481;-55
2022/05/10 07:34:20;;;;;;;18.57;15.90;;;20.60;90.70;;;;;;5009865;28;20490;-56
2022/05/10 07:36:50;;;;;;;16.50;15.00;;;20.80;91.10;;;;;;4995054;28;20535;-56
2022/05/10 07:39:18;;;;;;;17.07;15.27;;;21.00;90.00;;;;;;5002444;28;21081;-55
2022/05/10 07:41:45;;;;;;;16.70;15.07;;;21.10;90.80;;;;;;4999724;28;20476;-55
2022/05/10 07:44:13;;;;;;;18.60;16.70;;;21.40;90.50;;;;;;5006411;28;20496;-56
2022/05/10 07:46:39;;;;;;;17.77;16.07;;;21.50;90.90;;;;;;4999848;28;20562;-56
2022/05/10 07:49:06;;;;;;;21.90;16.07;;;21.80;91.10;;;;;;5004430;28;20488;-56
2022/05/10 07:51:34;;;;;;;16.07;14.47;;;22.00;90.60;;;;;;5002071;28;20470;-55
2022/05/10 07:54:01;;;;;;;16.27;14.80;;;22.30;90.50;;;;;;5000204;28;20490;-55
2022/05/10 07:56:28;;;;;;;16.00;14.50;;;22.50;89.60;;;;;;5005720;28;20484;-55
2022/05/10 07:58:56;;;;;;;16.77;15.20;;;22.60;89.80;;;;;;5007883;28;20856;-55
2022/05/10 08:01:23;;;;;;;18.40;15.80;;;22.90;90.10;;;;;;5009399;28;20998;-56
2022/05/10 08:03:50;;;;;;;16.13;14.53;;;22.90;89.90;;;;;;5004137;28;21028;-55
2022/05/10 08:06:17;;;;;;;21.27;15.33;;;23.00;86.80;;;;;;4998669;28;20491;-55
2022/05/10 08:08:45;;;;;;;15.50;14.00;;;23.20;89.00;;;;;;5001128;28;20484;-55
2022/05/10 08:11:12;;;;;;;15.73;14.10;;;23.40;85.80;;;;;;5007431;28;20491;-55
2022/05/10 08:13:39;;;;;;;14.87;13.50;;;23.30;85.50;;;;;;5001884;28;20483;-55
2022/05/10 08:16:08;;;;;;;15.83;14.13;;;23.30;86.70;;;;;;5005142;28;20549;-54
2022/05/10 08:18:36;;;;;;;16.07;14.40;;;23.60;87.30;;;;;;4995168;28;20548;-55
2022/05/10 08:21:04;;;;;;;14.60;13.30;;;23.70;85.50;;;;;;4998556;28;20558;-54
2022/05/10 08:23:33;;;;;;;19.13;11.50;;;24.00;87.50;;;;;;5012911;28;20485;-54
2022/05/10 08:26:02;;;;;;;11.43;10.50;;;24.10;83.90;;;;;;5008884;28;20460;-56
2022/05/10 08:28:30;;;;;;;12.80;11.50;;;24.00;81.70;;;;;;4997476;28;21034;-53
2022/05/10 08:30:58;;;;;;;14.83;11.60;;;23.90;83.80;;;;;;5002041;28;20491;-54
2022/05/10 08:33:27;;;;;;;11.87;10.83;;;23.80;84.10;;;;;;4996177;28;20483;-54
2022/05/10 08:35:55;;;;;;;12.67;11.37;;;23.80;82.20;;;;;;5007874;28;20485;-55
2022/05/10 08:38:23;;;;;;;11.53;10.33;;;23.60;83.70;;;;;;5003620;28;20847;-54
2022/05/10 08:40:54;;;;;;;11.40;10.30;;;23.70;82.30;;;;;;5005601;28;21009;-54
2022/05/10 08:43:25;;;;;;;10.87;9.97;;;23.80;82.50;;;;;;4995509;28;20503;-54
2022/05/10 08:45:53;;;;;;;9.80;8.90;;;23.90;84.50;;;;;;5001975;28;20488;-54
2022/05/10 08:48:19;;;;;;;12.07;10.87;;;24.10;86.00;;;;;;4996323;28;20635;-54
2022/05/10 08:50:49;;;;;;;11.33;9.87;;;24.20;84.30;;;;;;5010268;28;20497;-55
2022/05/10 08:53:17;;;;;;;12.10;11.10;;;24.20;80.60;;;;;;5003999;28;20473;-55
2022/05/10 08:55:52;;;;;;;12.43;11.23;;;24.00;80.10;;;;;;5006567;28;20481;-54
2022/05/10 08:58:47;;;;;;;11.07;9.80;;;23.90;81.00;;;;;;4998982;28;21245;-54
2022/05/10 09:01:19;;;;;;;12.57;11.30;;;24.10;83.10;;;;;;5008122;28;20477;-55
2022/05/10 09:03:53;;;;;;;10.10;9.13;;;24.20;82.80;;;;;;4986664;28;20966;-54
2022/05/10 09:06:28;;;;;;;12.10;10.33;;;24.40;82.70;;;;;;4994091;28;20512;-53
2022/05/10 09:09:06;;;;;;;11.77;9.90;;;24.60;80.90;;;;;;5003317;28;20484;-53
2022/05/10 09:11:43;;;;;;;13.27;10.53;;;24.60;81.20;;;;;;5000549;28;20489;-53
2022/05/10 09:14:13;;;;;;;12.70;10.97;;;24.60;78.60;;;;;;4996533;28;21109;-53
2022/05/10 09:16:40;;;;;;;9.80;9.00;;;24.70;80.70;;;;;;5001085;28;20943;-53
2022/05/10 09:19:10;;;;;;;11.03;10.13;;;24.80;79.30;;;;;;5003145;28;21183;-53
2022/05/10 09:21:48;;;;;;;11.00;10.10;;;24.70;80.40;;;;;;5004636;28;20488;-53
2022/05/10 09:24:22;;;;;;;11.00;10.10;;;24.50;78.90;;;;;;5004567;28;20503;-53
2022/05/10 09:26:52;;;;;;;15.13;9.40;;;24.50;81.00;;;;;;4996961;28;20492;-54
2022/05/10 09:29:30;;;;;;;14.47;10.80;;;24.60;79.20;;;;;;5005945;28;21260;-54
2022/05/10 09:34:53;;;;;;;12.07;10.40;;;24.10;80.30;;;;;;5010342;28;20881;-54
2022/05/10 09:37:24;;;;;;;11.70;10.57;;;24.20;82.10;;;;;;4988010;28;20793;-55
2022/05/10 09:40:03;;;;;;;11.30;10.17;;;24.50;81.80;;;;;;4998995;28;20986;-55
2022/05/10 09:42:33;;;;;;;10.80;9.80;;;24.60;79.20;;;;;;5004854;28;20482;-54
2022/05/10 09:45:06;;;;;;;9.67;8.77;;;24.80;80.70;;;;;;4999719;28;20487;-54
2022/05/10 09:47:33;;;;;;;12.93;11.33;;;25.00;80.90;;;;;;5003577;28;20883;-55
2022/05/10 09:50:15;;;;;;;11.37;10.37;;;25.00;78.90;;;;;;4996246;28;20856;-55
2022/05/10 09:52:43;;;;;;;9.73;8.93;;;25.00;79.30;;;;;;5006714;28;20510;-53
2022/05/10 09:55:16;;;;;;;13.67;10.33;;;25.00;78.60;;;;;;5003568;28;20918;-54
2022/05/10 09:57:43;;;;;;;11.43;9.93;;;24.90;77.30;;;;;;5003765;28;20485;-55
2022/05/10 10:00:15;;;;;;;11.50;10.40;;;25.10;79.30;;;;;;4999810;28;20921;-55
2022/05/10 10:02:43;;;;;;;10.10;9.30;;;25.30;81.40;;;;;;5005432;28;20573;-55
2022/05/10 10:05:21;;;;;;;10.80;9.60;;;25.50;81.20;;;;;;4998761;28;20764;-54
2022/05/10 10:07:54;;;;;;;10.93;9.80;;;25.80;75.60;;;;;;4993918;28;20797;-54
2022/05/10 10:10:26;;;;;;;11.13;10.17;;;25.90;77.60;;;;;;4992761;28;20832;-54
2022/05/10 10:12:53;;;;;;;10.80;10.00;;;25.70;80.20;;;;;;4995031;28;20584;-54
2022/05/10 10:15:36;;;;;;;10.10;9.30;;;25.90;80.70;;;;;;5001789;28;21182;-54
2022/05/10 10:18:06;;;;;;;10.77;9.63;;;26.10;77.00;;;;;;5003561;28;20473;-54
2022/05/10 10:20:38;;;;;;;11.07;10.20;;;26.00;75.50;;;;;;5006187;28;20472;-53
2022/05/10 10:23:21;;;;;;;14.50;10.03;;;26.00;77.90;;;;;;5001334;28;21100;-53
2022/05/10 10:25:50;;;;;;;10.07;9.33;;;26.10;77.40;;;;;;5000963;28;21070;-54
2022/05/10 10:28:25;;;;;;;9.30;8.60;;;25.80;75.40;;;;;;5000462;28;20484;-54
2022/05/10 10:30:56;;;;;;;9.50;8.50;;;26.10;76.90;;;;;;4999642;28;20917;-53
2022/05/10 10:33:34;;;;;;;10.37;9.37;;;26.30;76.60;;;;;;4983950;28;20889;-53
2022/05/10 10:36:05;;;;;;;11.10;9.20;;;26.20;74.90;;;;;;4997174;28;20458;-53
2022/05/10 10:38:42;;;;;;;10.37;9.40;;;26.40;74.90;;;;;;4999811;28;20528;-53
2022/05/10 10:41:12;;;;;;;13.90;9.13;;;26.50;75.70;;;;;;5004598;28;20477;-53
2022/05/10 10:43:45;;;;;;;10.33;9.40;;;26.30;73.50;;;;;;5000680;28;20489;-53
2022/05/10 10:46:22;;;;;;;14.70;9.00;;;26.10;76.20;;;;;;5004977;28;20499;-54
2022/05/10 10:48:52;;;;;;;9.63;8.47;;;26.20;75.90;;;;;;4988586;28;20476;-53
2022/05/10 10:51:21;;;;;;;11.27;10.13;;;26.40;76.50;;;;;;5002218;28;20488;-53
2022/05/10 10:53:48;;;;;;;9.63;8.73;;;26.80;75.30;;;;;;4996536;28;20467;-53
2022/05/10 10:56:35;;;;;;;10.33;9.40;;;26.90;74.60;;;;;;5005836;28;20495;-54
2022/05/10 10:59:22;;;;;;;10.10;9.10;;;26.70;72.80;;;;;;4987876;28;20481;-53
2022/05/10 11:02:03;;;;;;;9.60;8.80;;;27.00;74.00;;;;;;4996505;28;20456;-53
2022/05/10 11:04:51;;;;;;;9.93;8.93;;;27.00;72.30;;;;;;4992283;28;20485;-54
2022/05/10 11:07:28;;;;;;;9.43;8.67;;;27.30;71.40;;;;;;4998660;28;20757;-53
2022/05/10 11:10:02;;;;;;;9.33;8.43;;;27.40;73.60;;;;;;4989704;28;20455;-58
2022/05/10 11:12:41;;;;;;;9.40;8.67;;;27.60;73.30;;;;;;4998506;28;20485;-53
2022/05/10 11:15:19;;;;;;;9.03;8.33;;;27.50;73.20;;;;;;4999968;28;20477;-53
2022/05/10 11:18:02;;;;;;;9.67;8.80;;;27.20;71.10;;;;;;4991504;28;20459;-53
2022/05/10 11:20:44;;;;;;;7.20;6.57;;;27.20;71.30;;;;;;4996695;28;20448;-53
2022/05/10 11:23:16;;;;;;;7.97;7.00;;;27.20;67.10;;;;;;4990119;28;20520;-53
2022/05/10 11:25:54;;;;;;;8.93;7.20;;;27.40;69.90;;;;;;4992963;28;20563;-53
2022/05/10 11:28:44;;;;;;;8.50;7.90;;;27.60;68.30;;;;;;4997803;28;20512;-53
2022/05/10 11:31:18;;;;;;;9.47;8.57;;;27.70;68.00;;;;;;4997033;28;20474;-53
2022/05/10 11:33:55;;;;;;;9.73;8.57;;;27.80;68.30;;;;;;4997372;28;20535;-52
2022/05/10 11:36:30;;;;;;;9.03;8.17;;;27.80;69.80;;;;;;5003748;28;20484;-53
2022/05/10 11:39:25;;;;;;;8.77;7.97;;;27.60;68.90;;;;;;4987591;28;20481;-55
2022/05/10 11:42:08;;;;;;;8.50;7.73;;;27.80;67.10;;;;;;4994383;28;20843;-53
2022/05/10 11:44:52;;;;;;;8.07;7.37;;;27.90;69.10;;;;;;5001613;28;20489;-53
2022/05/10 11:48:00;;;;;;;8.07;7.37;;;28.00;70.20;;;;;;4992998;28;21640;-53
2022/05/10 11:54:05;;;;;;;6.93;6.27;;;28.40;66.10;;;;;;4963529;28;20500;-53
2022/05/10 11:56:35;;;;;;;6.00;5.20;;;28.40;65.20;;;;;;4993194;28;20835;-53
2022/05/10 11:59:04;;;;;;;5.63;5.00;;;28.40;64.80;;;;;;4991100;28;20506;-53
2022/05/10 12:01:43;;;;;;;5.40;5.00;;;28.50;61.90;;;;;;4996518;28;20456;-53
2022/05/10 12:04:41;;;;;;;6.33;5.83;;;28.60;63.70;;;;;;4944196;28;20477;-53
2022/05/10 12:07:33;;;;;;;7.37;5.63;;;28.40;60.70;;;;;;4974650;28;20503;-52
2022/05/10 12:10:04;;;;;;;6.73;6.13;;;28.50;61.20;;;;;;4992439;28;20477;-53
2022/05/10 12:12:59;;;;;;;9.57;6.20;;;28.60;65.10;;;;;;4992069;28;20590;-52
2022/05/10 12:21:30;;;;;;;6.10;5.70;;;28.00;62.70;;;;;;5012168;28;20558;-53
2022/05/10 12:24:12;;;;;;;8.83;6.00;;;27.80;62.60;;;;;;4992494;28;21311;-53
2022/05/10 12:26:44;;;;;;;6.23;5.63;;;27.60;61.20;;;;;;5006217;28;20499;-53
2022/05/10 12:29:35;;;;;;;7.70;5.57;;;27.60;62.10;;;;;;5008042;28;21171;-53
2022/05/10 12:32:03;;;;;;;7.50;6.73;;;27.50;65.10;;;;;;4994156;28;20477;-54
2022/05/10 12:34:48;;;;;;;8.97;5.97;;;27.40;66.20;;;;;;4999151;28;20480;-53
2022/05/10 12:37:53;;;;;;;6.77;6.20;;;27.50;65.00;;;;;;5002067;28;20568;-53
2022/05/10 12:40:31;;;;;;;5.90;5.40;;;27.60;63.60;;;;;;4972971;28;20969;-53
2022/05/10 12:43:17;;;;;;;7.13;6.53;;;27.60;63.40;;;;;;4964596;28;20611;-53
2022/05/10 12:45:50;;;;;;;7.20;6.47;;;27.40;62.40;;;;;;4990113;28;20480;-53
2022/05/10 12:48:30;;;;;;;7.23;6.70;;;27.40;66.30;;;;;;5004007;28;20564;-53
2022/05/10 12:51:04;;;;;;;6.97;6.33;;;27.30;63.00;;;;;;5002881;28;20560;-54
2022/05/10 12:53:42;;;;;;;8.80;6.30;;;27.40;65.20;;;;;;5001482;28;20980;-55
2022/05/10 12:56:19;;;;;;;6.30;5.80;;;27.30;66.10;;;;;;4988398;28;20452;-53
2022/05/10 12:58:50;;;;;;;6.83;6.23;;;27.50;65.70;;;;;;4999412;28;20481;-53
2022/05/10 13:01:19;;;;;;;6.50;5.90;;;27.50;66.00;;;;;;4999026;28;20480;-53
2022/05/10 13:03:52;;;;;;;8.33;5.70;;;27.50;63.00;;;;;;4993593;28;20804;-53
2022/05/10 13:06:23;;;;;;;5.40;5.00;;;27.30;61.00;;;;;;4998449;28;20484;-53
2022/05/10 13:09:07;;;;;;;6.00;5.40;;;27.20;63.00;;;;;;4994909;28;20707;-54
2022/05/10 13:11:42;;;;;;;5.63;5.23;;;27.10;65.10;;;;;;5005712;28;20480;-54